sensor_id;sensor_type;location;lat;lon;timestamp;P1;durP1;ratioP1;P2;durP2;ratioP2
53674;SDS011;39574;50.534;8.500;2023-01-08T00:02:48;6.0;;;3.7;;
53674;SDS011;39574;50.534;8.500;2023-01-08T00:07:47;5.6;;;3.5;;
53674;SDS011;39574;50.534;8.500;2023-01-08T00:12:46;5.8;;;3.6;;
53674;SDS011;39574;50.534;8.500;2023-01-08T00:17:45;6.9;;;4.3;;
53674;SDS011;39574;50.534;8.500;2023-01-08T00:22:46;6.8;;;4.1;;
53674;SDS011;39574;50.534;8.500;2023-01-08T00:27:43;6.5;;;3.9;;
53674;SDS011;39574;50.534;8.500;2023-01-08T00:32:42;6.1;;;3.8;;
53674;SDS011;39574;50.534;8.500;2023-01-08T00:37:41;5.4;;;3.6;;
53674;SDS011;39574;50.534;8.500;2023-01-08T00:42:40;5.0;;;3.4;;
53674;SDS011;39574;50.534;8.500;2023-01-08T00:47:39;5.3;;;3.4;;
53674;SDS011;39574;50.534;8.500;2023-01-08T00:52:39;5.2;;;3.4;;
53674;SDS011;39574;50.534;8.500;2023-01-08T00:57:38;4.9;;;3.3;;
53674;SDS011;39574;50.534;8.500;2023-01-08T01:02:37;4.7;;;3.1;;
53674;SDS011;39574;50.534;8.500;2023-01-08T01:07:36;5.1;;;3.1;;
53674;SDS011;39574;50.534;8.500;2023-01-08T01:12:35;5.1;;;3.1;;
53674;SDS011;39574;50.534;8.500;2023-01-08T01:17:34;5.1;;;3.2;;
53674;SDS011;39574;50.534;8.500;2023-01-08T01:22:33;5.3;;;3.3;;
53674;SDS011;39574;50.534;8.500;2023-01-08T01:27:32;5.0;;;3.3;;
53674;SDS011;39574;50.534;8.500;2023-01-08T01:32:32;5.6;;;3.3;;
53674;SDS011;39574;50.534;8.500;2023-01-08T01:37:31;5.6;;;3.3;;
53674;SDS011;39574;50.534;8.500;2023-01-08T01:42:30;5.1;;;3.1;;
53674;SDS011;39574;50.534;8.500;2023-01-08T01:47:30;5.7;;;3.4;;
53674;SDS011;39574;50.534;8.500;2023-01-08T01:52:29;5.2;;;3.2;;
53674;SDS011;39574;50.534;8.500;2023-01-08T01:57:27;5.3;;;3.2;;
53674;SDS011;39574;50.534;8.500;2023-01-08T02:02:26;5.2;;;3.3;;
53674;SDS011;39574;50.534;8.500;2023-01-08T02:07:26;5.1;;;3.0;;
53674;SDS011;39574;50.534;8.500;2023-01-08T02:12:25;4.8;;;3.1;;
53674;SDS011;39574;50.534;8.500;2023-01-08T02:17:25;5.0;;;3.1;;
53674;SDS011;39574;50.534;8.500;2023-01-08T02:22:25;5.2;;;3.1;;
53674;SDS011;39574;50.534;8.500;2023-01-08T02:27:23;5.1;;;3.3;;
53674;SDS011;39574;50.534;8.500;2023-01-08T02:32:21;5.0;;;3.3;;
53674;SDS011;39574;50.534;8.500;2023-01-08T02:37:20;4.9;;;3.2;;
53674;SDS011;39574;50.534;8.500;2023-01-08T02:42:20;4.9;;;3.2;;
53674;SDS011;39574;50.534;8.500;2023-01-08T02:47:21;4.7;;;3.1;;
53674;SDS011;39574;50.534;8.500;2023-01-08T02:52:17;4.8;;;3.0;;
53674;SDS011;39574;50.534;8.500;2023-01-08T02:57:16;4.6;;;2.9;;
53674;SDS011;39574;50.534;8.500;2023-01-08T03:02:16;4.3;;;2.8;;
53674;SDS011;39574;50.534;8.500;2023-01-08T03:07:15;4.3;;;2.9;;
53674;SDS011;39574;50.534;8.500;2023-01-08T03:12:15;4.8;;;2.9;;
53674;SDS011;39574;50.534;8.500;2023-01-08T03:17:13;5.5;;;2.9;;
53674;SDS011;39574;50.534;8.500;2023-01-08T03:22:13;5.2;;;2.9;;
53674;SDS011;39574;50.534;8.500;2023-01-08T03:27:11;5.6;;;3.0;;
53674;SDS011;39574;50.534;8.500;2023-01-08T03:32:11;5.4;;;3.0;;
53674;SDS011;39574;50.534;8.500;2023-01-08T03:37:09;4.9;;;3.0;;
53674;SDS011;39574;50.534;8.500;2023-01-08T03:42:09;4.5;;;3.0;;
53674;SDS011;39574;50.534;8.500;2023-01-08T03:47:07;3.7;;;2.7;;
53674;SDS011;39574;50.534;8.500;2023-01-08T03:52:08;3.5;;;2.6;;
53674;SDS011;39574;50.534;8.500;2023-01-08T03:57:06;3.8;;;2.6;;
53674;SDS011;39574;50.534;8.500;2023-01-08T04:02:05;4.2;;;2.6;;
53674;SDS011;39574;50.534;8.500;2023-01-08T04:07:04;4.6;;;2.7;;
53674;SDS011;39574;50.534;8.500;2023-01-08T04:12:03;4.9;;;2.8;;
53674;SDS011;39574;50.534;8.500;2023-01-08T04:17:02;4.8;;;2.7;;
53674;SDS011;39574;50.534;8.500;2023-01-08T04:22:01;4.8;;;2.7;;
53674;SDS011;39574;50.534;8.500;2023-01-08T04:27:00;4.3;;;2.7;;
53674;SDS011;39574;50.534;8.500;2023-01-08T04:31:59;4.6;;;2.6;;
53674;SDS011;39574;50.534;8.500;2023-01-08T04:36:58;4.5;;;2.7;;
53674;SDS011;39574;50.534;8.500;2023-01-08T04:41:57;4.0;;;2.6;;
53674;SDS011;39574;50.534;8.500;2023-01-08T04:46:56;3.9;;;2.5;;
53674;SDS011;39574;50.534;8.500;2023-01-08T04:51:55;3.8;;;2.3;;
53674;SDS011;39574;50.534;8.500;2023-01-08T04:56:54;3.7;;;2.3;;
53674;SDS011;39574;50.534;8.500;2023-01-08T05:01:53;3.8;;;2.3;;
53674;SDS011;39574;50.534;8.500;2023-01-08T05:06:52;3.5;;;2.3;;
53674;SDS011;39574;50.534;8.500;2023-01-08T05:11:52;3.7;;;2.4;;
53674;SDS011;39574;50.534;8.500;2023-01-08T05:16:51;3.7;;;2.4;;
53674;SDS011;39574;50.534;8.500;2023-01-08T05:21:50;3.6;;;2.2;;
53674;SDS011;39574;50.534;8.500;2023-01-08T05:26:49;3.3;;;2.1;;
53674;SDS011;39574;50.534;8.500;2023-01-08T05:31:48;3.3;;;2.0;;
53674;SDS011;39574;50.534;8.500;2023-01-08T05:36:47;3.3;;;2.0;;
53674;SDS011;39574;50.534;8.500;2023-01-08T05:41:46;3.0;;;1.9;;
53674;SDS011;39574;50.534;8.500;2023-01-08T05:46:45;2.9;;;1.9;;
53674;SDS011;39574;50.534;8.500;2023-01-08T05:51:44;2.9;;;1.8;;
53674;SDS011;39574;50.534;8.500;2023-01-08T05:56:43;2.7;;;1.8;;
53674;SDS011;39574;50.534;8.500;2023-01-08T06:01:42;2.8;;;1.9;;
53674;SDS011;39574;50.534;8.500;2023-01-08T06:06:41;3.2;;;1.9;;
53674;SDS011;39574;50.534;8.500;2023-01-08T06:11:40;3.2;;;1.9;;
53674;SDS011;39574;50.534;8.500;2023-01-08T06:16:40;2.9;;;1.8;;
53674;SDS011;39574;50.534;8.500;2023-01-08T06:21:39;2.5;;;1.6;;
53674;SDS011;39574;50.534;8.500;2023-01-08T06:26:38;2.4;;;1.5;;
53674;SDS011;39574;50.534;8.500;2023-01-08T06:31:37;2.1;;;1.5;;
53674;SDS011;39574;50.534;8.500;2023-01-08T06:36:36;2.1;;;1.5;;
53674;SDS011;39574;50.534;8.500;2023-01-08T06:41:35;2.0;;;1.4;;
53674;SDS011;39574;50.534;8.500;2023-01-08T06:46:34;2.1;;;1.4;;
53674;SDS011;39574;50.534;8.500;2023-01-08T06:51:33;2.1;;;1.4;;
53674;SDS011;39574;50.534;8.500;2023-01-08T06:56:32;2.8;;;1.5;;
53674;SDS011;39574;50.534;8.500;2023-01-08T07:01:31;2.5;;;1.5;;
53674;SDS011;39574;50.534;8.500;2023-01-08T07:06:30;3.0;;;1.5;;
53674;SDS011;39574;50.534;8.500;2023-01-08T07:11:29;2.6;;;1.3;;
53674;SDS011;39574;50.534;8.500;2023-01-08T07:16:28;2.2;;;1.2;;
53674;SDS011;39574;50.534;8.500;2023-01-08T07:21:27;2.3;;;1.2;;
53674;SDS011;39574;50.534;8.500;2023-01-08T07:26:26;2.4;;;1.2;;
53674;SDS011;39574;50.534;8.500;2023-01-08T07:31:26;2.1;;;1.2;;
53674;SDS011;39574;50.534;8.500;2023-01-08T07:36:25;2.1;;;1.1;;
53674;SDS011;39574;50.534;8.500;2023-01-08T07:41:24;2.5;;;1.1;;
53674;SDS011;39574;50.534;8.500;2023-01-08T07:46:23;2.3;;;1.2;;
53674;SDS011;39574;50.534;8.500;2023-01-08T07:51:22;2.3;;;1.3;;
53674;SDS011;39574;50.534;8.500;2023-01-08T07:56:21;2.1;;;1.4;;
53674;SDS011;39574;50.534;8.500;2023-01-08T08:01:20;1.9;;;1.3;;
53674;SDS011;39574;50.534;8.500;2023-01-08T08:06:19;1.9;;;1.3;;
53674;SDS011;39574;50.534;8.500;2023-01-08T08:11:18;2.4;;;1.5;;
53674;SDS011;39574;50.534;8.500;2023-01-08T08:16:17;2.4;;;1.5;;
53674;SDS011;39574;50.534;8.500;2023-01-08T08:21:16;2.7;;;1.7;;
53674;SDS011;39574;50.534;8.500;2023-01-08T08:26:15;2.7;;;1.8;;
53674;SDS011;39574;50.534;8.500;2023-01-08T08:31:14;2.8;;;1.8;;
53674;SDS011;39574;50.534;8.500;2023-01-08T08:36:13;2.8;;;1.8;;
53674;SDS011;39574;50.534;8.500;2023-01-08T08:41:12;2.7;;;1.8;;
53674;SDS011;39574;50.534;8.500;2023-01-08T08:46:11;2.9;;;1.8;;
53674;SDS011;39574;50.534;8.500;2023-01-08T08:51:11;2.9;;;1.9;;
53674;SDS011;39574;50.534;8.500;2023-01-08T08:56:09;2.8;;;1.8;;
53674;SDS011;39574;50.534;8.500;2023-01-08T09:01:08;2.9;;;1.8;;
53674;SDS011;39574;50.534;8.500;2023-01-08T09:06:11;3.1;;;1.8;;
53674;SDS011;39574;50.534;8.500;2023-01-08T09:11:07;3.1;;;1.8;;
53674;SDS011;39574;50.534;8.500;2023-01-08T09:16:06;3.1;;;1.7;;
53674;SDS011;39574;50.534;8.500;2023-01-08T09:21:05;2.9;;;1.7;;
53674;SDS011;39574;50.534;8.500;2023-01-08T09:26:04;2.8;;;1.8;;
53674;SDS011;39574;50.534;8.500;2023-01-08T09:31:03;2.6;;;1.7;;
53674;SDS011;39574;50.534;8.500;2023-01-08T09:36:02;3.6;;;2.2;;
53674;SDS011;39574;50.534;8.500;2023-01-08T09:41:02;3.8;;;2.3;;
53674;SDS011;39574;50.534;8.500;2023-01-08T09:46:01;4.0;;;2.3;;
53674;SDS011;39574;50.534;8.500;2023-01-08T09:50:59;3.4;;;2.1;;
53674;SDS011;39574;50.534;8.500;2023-01-08T09:56:00;3.2;;;2.0;;
53674;SDS011;39574;50.534;8.500;2023-01-08T10:00:59;3.0;;;1.9;;
53674;SDS011;39574;50.534;8.500;2023-01-08T10:05:56;2.7;;;1.8;;
53674;SDS011;39574;50.534;8.500;2023-01-08T10:10:56;2.9;;;1.8;;
53674;SDS011;39574;50.534;8.500;2023-01-08T10:15:55;3.2;;;1.9;;
53674;SDS011;39574;50.534;8.500;2023-01-08T10:20:54;2.9;;;1.8;;
53674;SDS011;39574;50.534;8.500;2023-01-08T10:25:54;2.8;;;1.7;;
53674;SDS011;39574;50.534;8.500;2023-01-08T10:30:53;2.8;;;1.6;;
53674;SDS011;39574;50.534;8.500;2023-01-08T10:35:53;2.5;;;1.4;;
53674;SDS011;39574;50.534;8.500;2023-01-08T10:40:50;2.5;;;1.4;;
53674;SDS011;39574;50.534;8.500;2023-01-08T10:45:54;2.3;;;1.3;;
53674;SDS011;39574;50.534;8.500;2023-01-08T10:50:48;2.2;;;1.3;;
53674;SDS011;39574;50.534;8.500;2023-01-08T11:00:46;3.4;;;1.8;;
53674;SDS011;39574;50.534;8.500;2023-01-08T11:05:45;3.4;;;1.7;;
53674;SDS011;39574;50.534;8.500;2023-01-08T11:10:51;3.4;;;1.9;;
53674;SDS011;39574;50.534;8.500;2023-01-08T11:15:43;3.0;;;1.8;;
53674;SDS011;39574;50.534;8.500;2023-01-08T11:20:44;2.5;;;1.7;;
53674;SDS011;39574;50.534;8.500;2023-01-08T11:25:43;3.0;;;1.8;;
53674;SDS011;39574;50.534;8.500;2023-01-08T11:30:41;2.5;;;1.6;;
53674;SDS011;39574;50.534;8.500;2023-01-08T11:35:41;2.4;;;1.4;;
53674;SDS011;39574;50.534;8.500;2023-01-08T11:40:41;2.2;;;1.1;;
53674;SDS011;39574;50.534;8.500;2023-01-08T11:45:42;2.1;;;1.1;;
53674;SDS011;39574;50.534;8.500;2023-01-08T11:50:38;4.0;;;2.4;;
53674;SDS011;39574;50.534;8.500;2023-01-08T11:55:40;3.5;;;2.1;;
53674;SDS011;39574;50.534;8.500;2023-01-08T12:00:37;3.3;;;1.9;;
53674;SDS011;39574;50.534;8.500;2023-01-08T12:05:35;2.8;;;1.7;;
53674;SDS011;39574;50.534;8.500;2023-01-08T12:10:37;2.2;;;1.3;;
53674;SDS011;39574;50.534;8.500;2023-01-08T12:15:36;2.2;;;1.2;;
53674;SDS011;39574;50.534;8.500;2023-01-08T12:20:34;2.6;;;1.2;;
53674;SDS011;39574;50.534;8.500;2023-01-08T12:25:35;2.4;;;1.1;;
53674;SDS011;39574;50.534;8.500;2023-01-08T12:30:33;2.6;;;1.0;;
53674;SDS011;39574;50.534;8.500;2023-01-08T12:35:30;2.1;;;1.0;;
53674;SDS011;39574;50.534;8.500;2023-01-08T12:40:29;2.0;;;1.0;;
53674;SDS011;39574;50.534;8.500;2023-01-08T12:45:28;2.2;;;1.1;;
53674;SDS011;39574;50.534;8.500;2023-01-08T12:50:31;2.2;;;1.3;;
53674;SDS011;39574;50.534;8.500;2023-01-08T12:55:29;2.0;;;1.2;;
53674;SDS011;39574;50.534;8.500;2023-01-08T13:00:25;2.2;;;1.4;;
53674;SDS011;39574;50.534;8.500;2023-01-08T13:05:28;2.5;;;1.5;;
53674;SDS011;39574;50.534;8.500;2023-01-08T13:10:27;2.4;;;1.3;;
53674;SDS011;39574;50.534;8.500;2023-01-08T13:15:22;2.3;;;1.3;;
53674;SDS011;39574;50.534;8.500;2023-01-08T13:20:22;2.1;;;1.2;;
53674;SDS011;39574;50.534;8.500;2023-01-08T13:25:28;2.3;;;1.2;;
53674;SDS011;39574;50.534;8.500;2023-01-08T13:30:36;2.3;;;1.1;;
53674;SDS011;39574;50.534;8.500;2023-01-08T13:35:21;1.9;;;1.1;;
53674;SDS011;39574;50.534;8.500;2023-01-08T13:41:23;1.6;;;1.1;;
53674;SDS011;39574;50.534;8.500;2023-01-08T13:45:16;1.6;;;1.1;;
53674;SDS011;39574;50.534;8.500;2023-01-08T13:55:15;1.6;;;1.1;;
53674;SDS011;39574;50.534;8.500;2023-01-08T14:00:17;1.8;;;1.0;;
53674;SDS011;39574;50.534;8.500;2023-01-08T14:05:17;1.7;;;0.9;;
53674;SDS011;39574;50.534;8.500;2023-01-08T14:10:13;1.7;;;1.0;;
53674;SDS011;39574;50.534;8.500;2023-01-08T14:15:16;1.9;;;0.9;;
53674;SDS011;39574;50.534;8.500;2023-01-08T14:20:10;1.9;;;1.0;;
53674;SDS011;39574;50.534;8.500;2023-01-08T14:25:12;2.0;;;1.2;;
53674;SDS011;39574;50.534;8.500;2023-01-08T14:30:14;1.9;;;1.3;;
53674;SDS011;39574;50.534;8.500;2023-01-08T14:35:08;2.2;;;1.2;;
53674;SDS011;39574;50.534;8.500;2023-01-08T14:40:11;2.2;;;1.3;;
53674;SDS011;39574;50.534;8.500;2023-01-08T14:45:07;2.1;;;1.3;;
53674;SDS011;39574;50.534;8.500;2023-01-08T14:50:05;2.4;;;1.5;;
53674;SDS011;39574;50.534;8.500;2023-01-08T14:55:04;2.1;;;1.3;;
53674;SDS011;39574;50.534;8.500;2023-01-08T15:00:05;2.2;;;1.2;;
53674;SDS011;39574;50.534;8.500;2023-01-08T15:05:11;2.7;;;1.3;;
53674;SDS011;39574;50.534;8.500;2023-01-08T15:10:21;2.7;;;1.5;;
53674;SDS011;39574;50.534;8.500;2023-01-08T15:15:08;2.8;;;1.5;;
53674;SDS011;39574;50.534;8.500;2023-01-08T15:20:00;2.5;;;1.4;;
53674;SDS011;39574;50.534;8.500;2023-01-08T15:24:59;3.0;;;1.6;;
53674;SDS011;39574;50.534;8.500;2023-01-08T15:29:58;3.7;;;1.9;;
53674;SDS011;39574;50.534;8.500;2023-01-08T15:34:57;4.8;;;2.7;;
53674;SDS011;39574;50.534;8.500;2023-01-08T15:39:56;4.6;;;2.5;;
53674;SDS011;39574;50.534;8.500;2023-01-08T15:44:55;3.7;;;2.0;;
53674;SDS011;39574;50.534;8.500;2023-01-08T15:49:54;3.2;;;1.6;;
53674;SDS011;39574;50.534;8.500;2023-01-08T15:54:53;2.8;;;1.4;;
53674;SDS011;39574;50.534;8.500;2023-01-08T15:59:52;2.5;;;1.5;;
53674;SDS011;39574;50.534;8.500;2023-01-08T16:04:51;3.2;;;1.6;;
53674;SDS011;39574;50.534;8.500;2023-01-08T16:09:50;3.2;;;1.5;;
53674;SDS011;39574;50.534;8.500;2023-01-08T16:14:49;3.7;;;1.7;;
53674;SDS011;39574;50.534;8.500;2023-01-08T16:19:48;3.5;;;1.6;;
53674;SDS011;39574;50.534;8.500;2023-01-08T16:24:47;4.1;;;2.2;;
53674;SDS011;39574;50.534;8.500;2023-01-08T16:29:47;6.1;;;3.4;;
53674;SDS011;39574;50.534;8.500;2023-01-08T16:34:45;5.7;;;3.1;;
53674;SDS011;39574;50.534;8.500;2023-01-08T16:39:45;7.2;;;4.6;;
53674;SDS011;39574;50.534;8.500;2023-01-08T16:44:44;5.8;;;3.7;;
53674;SDS011;39574;50.534;8.500;2023-01-08T16:49:43;6.4;;;4.0;;
53674;SDS011;39574;50.534;8.500;2023-01-08T16:54:42;7.6;;;4.5;;
53674;SDS011;39574;50.534;8.500;2023-01-08T16:59:41;7.6;;;4.5;;
53674;SDS011;39574;50.534;8.500;2023-01-08T17:04:40;7.5;;;4.6;;
53674;SDS011;39574;50.534;8.500;2023-01-08T17:09:39;6.4;;;4.1;;
53674;SDS011;39574;50.534;8.500;2023-01-08T17:14:38;4.9;;;3.2;;
53674;SDS011;39574;50.534;8.500;2023-01-08T17:19:37;4.3;;;2.7;;
53674;SDS011;39574;50.534;8.500;2023-01-08T17:24:36;3.6;;;2.2;;
53674;SDS011;39574;50.534;8.500;2023-01-08T17:29:35;4.0;;;2.3;;
53674;SDS011;39574;50.534;8.500;2023-01-08T17:34:34;4.0;;;2.2;;
53674;SDS011;39574;50.534;8.500;2023-01-08T17:39:33;4.8;;;2.6;;
53674;SDS011;39574;50.534;8.500;2023-01-08T17:44:32;4.7;;;2.3;;
53674;SDS011;39574;50.534;8.500;2023-01-08T17:49:31;4.4;;;2.1;;
53674;SDS011;39574;50.534;8.500;2023-01-08T17:54:31;4.0;;;2.1;;
53674;SDS011;39574;50.534;8.500;2023-01-08T17:59:29;3.9;;;2.2;;
53674;SDS011;39574;50.534;8.500;2023-01-08T18:04:28;3.6;;;2.1;;
53674;SDS011;39574;50.534;8.500;2023-01-08T18:09:28;3.0;;;1.8;;
53674;SDS011;39574;50.534;8.500;2023-01-08T18:14:27;3.2;;;1.9;;
53674;SDS011;39574;50.534;8.500;2023-01-08T18:19:26;3.9;;;1.9;;
53674;SDS011;39574;50.534;8.500;2023-01-08T18:24:25;4.5;;;2.5;;
53674;SDS011;39574;50.534;8.500;2023-01-08T18:29:24;4.0;;;2.3;;
53674;SDS011;39574;50.534;8.500;2023-01-08T18:34:23;3.6;;;2.1;;
53674;SDS011;39574;50.534;8.500;2023-01-08T18:39:22;3.6;;;1.9;;
53674;SDS011;39574;50.534;8.500;2023-01-08T18:44:21;3.2;;;1.7;;
53674;SDS011;39574;50.534;8.500;2023-01-08T18:49:20;3.1;;;1.6;;
53674;SDS011;39574;50.534;8.500;2023-01-08T18:54:19;3.3;;;1.6;;
53674;SDS011;39574;50.534;8.500;2023-01-08T18:59:18;3.3;;;1.6;;
53674;SDS011;39574;50.534;8.500;2023-01-08T19:04:17;3.3;;;1.5;;
53674;SDS011;39574;50.534;8.500;2023-01-08T19:09:16;2.7;;;1.3;;
53674;SDS011;39574;50.534;8.500;2023-01-08T19:14:15;2.7;;;1.2;;
53674;SDS011;39574;50.534;8.500;2023-01-08T19:19:14;2.4;;;1.3;;
53674;SDS011;39574;50.534;8.500;2023-01-08T19:24:13;3.3;;;1.9;;
53674;SDS011;39574;50.534;8.500;2023-01-08T19:29:12;4.1;;;2.1;;
53674;SDS011;39574;50.534;8.500;2023-01-08T19:34:11;4.4;;;2.2;;
53674;SDS011;39574;50.534;8.500;2023-01-08T19:39:10;4.9;;;2.5;;
53674;SDS011;39574;50.534;8.500;2023-01-08T19:44:10;4.1;;;2.3;;
53674;SDS011;39574;50.534;8.500;2023-01-08T19:49:09;3.6;;;2.0;;
53674;SDS011;39574;50.534;8.500;2023-01-08T19:54:09;3.1;;;1.9;;
53674;SDS011;39574;50.534;8.500;2023-01-08T19:59:08;2.8;;;1.7;;
53674;SDS011;39574;50.534;8.500;2023-01-08T20:04:06;2.6;;;1.4;;
53674;SDS011;39574;50.534;8.500;2023-01-08T20:14:04;2.4;;;1.3;;
53674;SDS011;39574;50.534;8.500;2023-01-08T20:19:03;2.6;;;1.3;;
53674;SDS011;39574;50.534;8.500;2023-01-08T20:29:01;2.7;;;1.5;;
53674;SDS011;39574;50.534;8.500;2023-01-08T20:34:01;3.4;;;1.9;;
53674;SDS011;39574;50.534;8.500;2023-01-08T20:39:00;3.5;;;2.2;;
53674;SDS011;39574;50.534;8.500;2023-01-08T20:44:00;3.8;;;2.5;;
53674;SDS011;39574;50.534;8.500;2023-01-08T20:48:58;4.0;;;2.9;;
53674;SDS011;39574;50.534;8.500;2023-01-08T20:53:56;4.2;;;3.2;;
53674;SDS011;39574;50.534;8.500;2023-01-08T20:58:56;4.6;;;3.5;;
53674;SDS011;39574;50.534;8.500;2023-01-08T21:03:55;4.6;;;3.5;;
53674;SDS011;39574;50.534;8.500;2023-01-08T21:08:54;5.1;;;3.6;;
53674;SDS011;39574;50.534;8.500;2023-01-08T21:13:53;5.6;;;3.7;;
53674;SDS011;39574;50.534;8.500;2023-01-08T21:18:51;5.6;;;3.8;;
53674;SDS011;39574;50.534;8.500;2023-01-08T21:23:51;5.8;;;4.0;;
53674;SDS011;39574;50.534;8.500;2023-01-08T21:28:50;6.3;;;4.2;;
53674;SDS011;39574;50.534;8.500;2023-01-08T21:33:49;6.0;;;4.2;;
53674;SDS011;39574;50.534;8.500;2023-01-08T21:38:48;5.4;;;4.0;;
53674;SDS011;39574;50.534;8.500;2023-01-08T21:43:47;5.4;;;3.8;;
53674;SDS011;39574;50.534;8.500;2023-01-08T21:48:46;4.7;;;3.5;;
53674;SDS011;39574;50.534;8.500;2023-01-08T21:53:45;4.7;;;3.4;;
53674;SDS011;39574;50.534;8.500;2023-01-08T21:58:44;4.8;;;3.5;;
53674;SDS011;39574;50.534;8.500;2023-01-08T22:03:43;5.2;;;3.7;;
53674;SDS011;39574;50.534;8.500;2023-01-08T22:08:42;5.4;;;3.9;;
53674;SDS011;39574;50.534;8.500;2023-01-08T22:13:41;5.1;;;3.9;;
53674;SDS011;39574;50.534;8.500;2023-01-08T22:23:39;5.1;;;4.2;;
53674;SDS011;39574;50.534;8.500;2023-01-08T22:28:38;5.7;;;4.3;;
53674;SDS011;39574;50.534;8.500;2023-01-08T22:33:37;5.9;;;4.2;;
53674;SDS011;39574;50.534;8.500;2023-01-08T22:38:36;5.6;;;4.0;;
53674;SDS011;39574;50.534;8.500;2023-01-08T22:43:35;5.2;;;3.8;;
53674;SDS011;39574;50.534;8.500;2023-01-08T22:48:34;4.5;;;3.4;;
53674;SDS011;39574;50.534;8.500;2023-01-08T22:53:33;4.2;;;3.3;;
53674;SDS011;39574;50.534;8.500;2023-01-08T22:58:32;4.1;;;3.0;;
53674;SDS011;39574;50.534;8.500;2023-01-08T23:03:32;4.5;;;3.0;;
53674;SDS011;39574;50.534;8.500;2023-01-08T23:08:30;4.6;;;2.9;;
53674;SDS011;39574;50.534;8.500;2023-01-08T23:13:29;4.9;;;2.9;;
53674;SDS011;39574;50.534;8.500;2023-01-08T23:18:29;4.8;;;2.9;;
53674;SDS011;39574;50.534;8.500;2023-01-08T23:23:27;4.6;;;2.9;;
53674;SDS011;39574;50.534;8.500;2023-01-08T23:28:27;4.4;;;2.9;;
53674;SDS011;39574;50.534;8.500;2023-01-08T23:33:26;4.5;;;3.1;;
53674;SDS011;39574;50.534;8.500;2023-01-08T23:38:25;4.4;;;2.9;;
53674;SDS011;39574;50.534;8.500;2023-01-08T23:43:24;4.4;;;2.9;;
53674;SDS011;39574;50.534;8.500;2023-01-08T23:48:23;4.5;;;3.0;;
53674;SDS011;39574;50.534;8.500;2023-01-08T23:53:22;5.1;;;3.4;;
53674;SDS011;39574;50.534;8.500;2023-01-08T23:58:21;4.8;;;3.4;;
